sensor_id;sensor_type;location;lat;lon;timestamp;temperature;humidity
16388;DHT22;8303;53.446;9.988;2022-12-24T05:46:29;4.90;99.90
16388;DHT22;8303;53.446;9.988;2022-12-24T05:48:56;4.90;99.90
16388;DHT22;8303;53.446;9.988;2022-12-24T05:51:24;4.90;99.90
16388;DHT22;8303;53.446;9.988;2022-12-24T05:53:51;4.90;99.90
16388;DHT22;8303;53.446;9.988;2022-12-24T05:56:19;4.90;99.90
16388;DHT22;8303;53.446;9.988;2022-12-24T05:58:47;4.80;99.90
16388;DHT22;8303;53.446;9.988;2022-12-24T06:01:14;4.80;99.90
16388;DHT22;8303;53.446;9.988;2022-12-24T06:03:43;4.90;99.90
16388;DHT22;8303;53.446;9.988;2022-12-24T06:06:11;4.80;99.90
16388;DHT22;8303;53.446;9.988;2022-12-24T06:08:40;5.00;99.90
16388;DHT22;8303;53.446;9.988;2022-12-24T06:11:09;4.90;99.90
16388;DHT22;8303;53.446;9.988;2022-12-24T06:13:37;5.00;99.90
16388;DHT22;8303;53.446;9.988;2022-12-24T06:16:05;4.80;99.90
16388;DHT22;8303;53.446;9.988;2022-12-24T06:18:34;4.90;99.90
16388;DHT22;8303;53.446;9.988;2022-12-24T06:21:04;4.80;99.90
16388;DHT22;8303;53.446;9.988;2022-12-24T06:23:33;4.80;99.90
16388;DHT22;8303;53.446;9.988;2022-12-24T06:26:02;4.80;99.90
16388;DHT22;8303;53.446;9.988;2022-12-24T06:28:30;4.80;99.90
16388;DHT22;8303;53.446;9.988;2022-12-24T06:30:59;4.80;99.90
16388;DHT22;8303;53.446;9.988;2022-12-24T06:33:27;4.80;99.90
16388;DHT22;8303;53.446;9.988;2022-12-24T06:35:54;4.80;99.90
16388;DHT22;8303;53.446;9.988;2022-12-24T06:38:26;4.80;99.90
16388;DHT22;8303;53.446;9.988;2022-12-24T06:40:55;4.80;99.90
16388;DHT22;8303;53.446;9.988;2022-12-24T06:43:22;4.80;99.90
16388;DHT22;8303;53.446;9.988;2022-12-24T06:45:49;4.80;99.90
16388;DHT22;8303;53.446;9.988;2022-12-24T06:48:16;4.80;99.90
16388;DHT22;8303;53.446;9.988;2022-12-24T06:50:43;4.80;99.90
16388;DHT22;8303;53.446;9.988;2022-12-24T06:53:10;4.80;99.90
16388;DHT22;8303;53.446;9.988;2022-12-24T06:55:38;4.90;99.90
16388;DHT22;8303;53.446;9.988;2022-12-24T06:58:05;4.80;99.90
16388;DHT22;8303;53.446;9.988;2022-12-24T07:00:33;4.80;99.90
16388;DHT22;8303;53.446;9.988;2022-12-24T07:03:00;4.90;99.90
16388;DHT22;8303;53.446;9.988;2022-12-24T07:05:27;4.80;99.90
16388;DHT22;8303;53.446;9.988;2022-12-24T07:07:54;4.80;99.90
16388;DHT22;8303;53.446;9.988;2022-12-24T07:10:22;4.80;99.90
16388;DHT22;8303;53.446;9.988;2022-12-24T07:12:50;4.80;99.90
16388;DHT22;8303;53.446;9.988;2022-12-24T07:15:18;4.80;99.90
16388;DHT22;8303;53.446;9.988;2022-12-24T07:17:45;4.90;99.90
16388;DHT22;8303;53.446;9.988;2022-12-24T07:20:12;4.90;99.90
16388;DHT22;8303;53.446;9.988;2022-12-24T07:22:40;4.80;99.90
16388;DHT22;8303;53.446;9.988;2022-12-24T07:25:08;4.80;99.90
16388;DHT22;8303;53.446;9.988;2022-12-24T07:27:35;4.80;99.90
16388;DHT22;8303;53.446;9.988;2022-12-24T07:30:05;4.80;99.90
16388;DHT22;8303;53.446;9.988;2022-12-24T07:32:32;4.80;99.90
16388;DHT22;8303;53.446;9.988;2022-12-24T07:35:03;4.80;99.90
16388;DHT22;8303;53.446;9.988;2022-12-24T07:37:33;4.90;99.90
16388;DHT22;8303;53.446;9.988;2022-12-24T07:40:00;4.80;99.90
16388;DHT22;8303;53.446;9.988;2022-12-24T07:42:27;4.80;99.90
16388;DHT22;8303;53.446;9.988;2022-12-24T07:44:55;4.80;99.90
16388;DHT22;8303;53.446;9.988;2022-12-24T07:47:23;4.80;99.90
16388;DHT22;8303;53.446;9.988;2022-12-24T07:49:56;4.90;99.90
16388;DHT22;8303;53.446;9.988;2022-12-24T07:52:23;4.80;99.90
16388;DHT22;8303;53.446;9.988;2022-12-24T07:54:50;4.90;99.90
16388;DHT22;8303;53.446;9.988;2022-12-24T07:57:17;4.90;99.90
16388;DHT22;8303;53.446;9.988;2022-12-24T07:59:44;4.90;99.90
16388;DHT22;8303;53.446;9.988;2022-12-24T08:02:11;4.90;99.90
16388;DHT22;8303;53.446;9.988;2022-12-24T08:04:40;4.90;99.90
16388;DHT22;8303;53.446;9.988;2022-12-24T08:07:07;4.90;99.90
16388;DHT22;8303;53.446;9.988;2022-12-24T08:09:36;4.90;99.90
16388;DHT22;8303;53.446;9.988;2022-12-24T08:12:03;4.90;99.90
16388;DHT22;8303;53.446;9.988;2022-12-24T08:14:31;4.90;99.90
16388;DHT22;8303;53.446;9.988;2022-12-24T08:16:58;4.90;99.90
16388;DHT22;8303;53.446;9.988;2022-12-24T08:19:25;5.00;99.90
16388;DHT22;8303;53.446;9.988;2022-12-24T08:21:53;5.00;99.90
16388;DHT22;8303;53.446;9.988;2022-12-24T08:24:20;5.00;99.90
16388;DHT22;8303;53.446;9.988;2022-12-24T08:26:47;4.90;99.90
16388;DHT22;8303;53.446;9.988;2022-12-24T08:29:15;4.80;99.90
16388;DHT22;8303;53.446;9.988;2022-12-24T08:31:42;4.90;99.90
16388;DHT22;8303;53.446;9.988;2022-12-24T08:34:10;4.80;99.90
16388;DHT22;8303;53.446;9.988;2022-12-24T08:36:37;4.80;99.90
16388;DHT22;8303;53.446;9.988;2022-12-24T08:39:05;5.00;99.90
16388;DHT22;8303;53.446;9.988;2022-12-24T08:41:33;4.90;99.90
16388;DHT22;8303;53.446;9.988;2022-12-24T08:44:01;5.10;99.90
16388;DHT22;8303;53.446;9.988;2022-12-24T08:46:27;5.00;1.00
16388;DHT22;8303;53.446;9.988;2022-12-24T08:48:54;5.00;1.00
16388;DHT22;8303;53.446;9.988;2022-12-24T08:51:22;5.00;1.00
16388;DHT22;8303;53.446;9.988;2022-12-24T08:53:49;5.10;22.10
16388;DHT22;8303;53.446;9.988;2022-12-24T08:56:17;5.20;99.90
16388;DHT22;8303;53.446;9.988;2022-12-24T08:58:44;5.20;84.10
16388;DHT22;8303;53.446;9.988;2022-12-24T09:01:16;5.30;99.90
16388;DHT22;8303;53.446;9.988;2022-12-24T09:03:43;5.20;93.00
16388;DHT22;8303;53.446;9.988;2022-12-24T09:06:10;5.30;99.90
16388;DHT22;8303;53.446;9.988;2022-12-24T09:08:37;5.30;1.00
16388;DHT22;8303;53.446;9.988;2022-12-24T09:11:05;5.30;71.30
16388;DHT22;8303;53.446;9.988;2022-12-24T09:13:35;5.30;7.70
16388;DHT22;8303;53.446;9.988;2022-12-24T09:16:03;5.40;1.00
16388;DHT22;8303;53.446;9.988;2022-12-24T09:18:30;5.40;1.00
16388;DHT22;8303;53.446;9.988;2022-12-24T09:21:00;5.40;1.00
16388;DHT22;8303;53.446;9.988;2022-12-24T09:23:30;5.40;1.00
16388;DHT22;8303;53.446;9.988;2022-12-24T09:25:58;5.40;1.00
16388;DHT22;8303;53.446;9.988;2022-12-24T09:28:25;5.40;1.00
16388;DHT22;8303;53.446;9.988;2022-12-24T09:30:58;5.40;1.00
16388;DHT22;8303;53.446;9.988;2022-12-24T09:33:26;5.40;1.00
16388;DHT22;8303;53.446;9.988;2022-12-24T09:35:53;5.40;1.00
16388;DHT22;8303;53.446;9.988;2022-12-24T09:38:21;5.50;1.00
16388;DHT22;8303;53.446;9.988;2022-12-24T09:40:49;5.50;1.00
16388;DHT22;8303;53.446;9.988;2022-12-24T09:43:18;5.50;1.00
16388;DHT22;8303;53.446;9.988;2022-12-24T09:45:51;5.60;1.00
16388;DHT22;8303;53.446;9.988;2022-12-24T09:48:26;5.50;1.00
16388;DHT22;8303;53.446;9.988;2022-12-24T09:50:57;5.50;1.00
16388;DHT22;8303;53.446;9.988;2022-12-24T09:53:32;5.50;1.00
16388;DHT22;8303;53.446;9.988;2022-12-24T09:56:05;5.50;1.00
16388;DHT22;8303;53.446;9.988;2022-12-24T09:58:36;5.70;1.00
16388;DHT22;8303;53.446;9.988;2022-12-24T10:01:05;5.80;1.00
16388;DHT22;8303;53.446;9.988;2022-12-24T10:03:33;5.80;1.00
16388;DHT22;8303;53.446;9.988;2022-12-24T10:06:06;5.80;1.00
16388;DHT22;8303;53.446;9.988;2022-12-24T10:08:43;5.90;1.00
16388;DHT22;8303;53.446;9.988;2022-12-24T10:11:18;5.80;1.00
16388;DHT22;8303;53.446;9.988;2022-12-24T10:14:03;5.90;1.00
16388;DHT22;8303;53.446;9.988;2022-12-24T10:16:38;5.80;99.90
16388;DHT22;8303;53.446;9.988;2022-12-24T10:19:15;5.80;99.90
16388;DHT22;8303;53.446;9.988;2022-12-24T10:21:51;5.90;1.00
16388;DHT22;8303;53.446;9.988;2022-12-24T10:24:24;6.00;1.00
16388;DHT22;8303;53.446;9.988;2022-12-24T10:26:55;6.10;1.00
16388;DHT22;8303;53.446;9.988;2022-12-24T10:29:26;6.00;1.00
16388;DHT22;8303;53.446;9.988;2022-12-24T10:31:57;6.10;1.00
16388;DHT22;8303;53.446;9.988;2022-12-24T10:34:31;6.00;99.90
16388;DHT22;8303;53.446;9.988;2022-12-24T10:36:59;5.90;99.90
16388;DHT22;8303;53.446;9.988;2022-12-24T10:39:29;6.00;99.90
16388;DHT22;8303;53.446;9.988;2022-12-24T10:41:58;6.00;99.90
16388;DHT22;8303;53.446;9.988;2022-12-24T10:44:29;6.00;99.90
16388;DHT22;8303;53.446;9.988;2022-12-24T10:46:57;6.10;99.90
16388;DHT22;8303;53.446;9.988;2022-12-24T10:49:31;6.20;99.90
16388;DHT22;8303;53.446;9.988;2022-12-24T10:52:02;6.20;99.90
16388;DHT22;8303;53.446;9.988;2022-12-24T10:54:30;6.20;99.90
16388;DHT22;8303;53.446;9.988;2022-12-24T10:57:05;6.30;1.00
16388;DHT22;8303;53.446;9.988;2022-12-24T10:59:40;6.30;99.90
16388;DHT22;8303;53.446;9.988;2022-12-24T11:02:26;6.50;99.90
16388;DHT22;8303;53.446;9.988;2022-12-24T11:04:56;6.50;99.90
16388;DHT22;8303;53.446;9.988;2022-12-24T11:07:28;6.60;99.90
16388;DHT22;8303;53.446;9.988;2022-12-24T11:10:21;6.60;99.90
16388;DHT22;8303;53.446;9.988;2022-12-24T11:12:49;6.60;99.90
16388;DHT22;8303;53.446;9.988;2022-12-24T11:15:18;6.80;99.90
16388;DHT22;8303;53.446;9.988;2022-12-24T11:17:53;6.80;84.40
16388;DHT22;8303;53.446;9.988;2022-12-24T11:20:26;6.90;99.90
16388;DHT22;8303;53.446;9.988;2022-12-24T11:22:55;7.00;1.00
16388;DHT22;8303;53.446;9.988;2022-12-24T11:25:25;7.00;1.00
16388;DHT22;8303;53.446;9.988;2022-12-24T11:28:19;7.10;99.20
16388;DHT22;8303;53.446;9.988;2022-12-24T11:30:56;7.30;99.90
16388;DHT22;8303;53.446;9.988;2022-12-24T11:33:24;7.20;1.00
16388;DHT22;8303;53.446;9.988;2022-12-24T11:36:02;7.10;1.00
16388;DHT22;8303;53.446;9.988;2022-12-24T11:38:31;7.10;1.00
16388;DHT22;8303;53.446;9.988;2022-12-24T11:41:05;7.10;1.00
16388;DHT22;8303;53.446;9.988;2022-12-24T11:43:39;7.10;1.00
16388;DHT22;8303;53.446;9.988;2022-12-24T11:46:19;7.10;1.00
16388;DHT22;8303;53.446;9.988;2022-12-24T11:48:47;7.20;1.00
16388;DHT22;8303;53.446;9.988;2022-12-24T11:51:22;7.10;1.00
16388;DHT22;8303;53.446;9.988;2022-12-24T11:53:50;7.20;1.00
16388;DHT22;8303;53.446;9.988;2022-12-24T11:56:28;7.20;1.00
16388;DHT22;8303;53.446;9.988;2022-12-24T11:59:01;7.50;1.00
16388;DHT22;8303;53.446;9.988;2022-12-24T12:01:33;7.80;99.90
16388;DHT22;8303;53.446;9.988;2022-12-24T12:04:05;8.00;99.90
16388;DHT22;8303;53.446;9.988;2022-12-24T12:06:39;8.20;99.90
16388;DHT22;8303;53.446;9.988;2022-12-24T12:09:11;8.20;1.00
16388;DHT22;8303;53.446;9.988;2022-12-24T12:11:41;8.30;1.00
16388;DHT22;8303;53.446;9.988;2022-12-24T12:14:14;8.20;1.00
16388;DHT22;8303;53.446;9.988;2022-12-24T12:16:46;8.20;1.00
16388;DHT22;8303;53.446;9.988;2022-12-24T12:19:30;8.20;1.00
16388;DHT22;8303;53.446;9.988;2022-12-24T12:22:00;8.30;1.00
16388;DHT22;8303;53.446;9.988;2022-12-24T12:24:33;8.40;1.00
16388;DHT22;8303;53.446;9.988;2022-12-24T12:27:06;8.40;1.00
16388;DHT22;8303;53.446;9.988;2022-12-24T12:29:43;8.40;1.00
16388;DHT22;8303;53.446;9.988;2022-12-24T12:32:12;8.40;1.00
16388;DHT22;8303;53.446;9.988;2022-12-24T12:34:44;8.40;1.00
16388;DHT22;8303;53.446;9.988;2022-12-24T12:37:20;8.40;1.00
16388;DHT22;8303;53.446;9.988;2022-12-24T12:39:50;8.50;1.00
16388;DHT22;8303;53.446;9.988;2022-12-24T12:42:25;8.50;1.00
16388;DHT22;8303;53.446;9.988;2022-12-24T12:45:23;8.60;14.30
16388;DHT22;8303;53.446;9.988;2022-12-24T12:48:10;8.60;43.50
16388;DHT22;8303;53.446;9.988;2022-12-24T12:50:45;8.80;72.60
16388;DHT22;8303;53.446;9.988;2022-12-24T12:53:29;8.90;57.90
16388;DHT22;8303;53.446;9.988;2022-12-24T12:56:02;9.00;1.00
16388;DHT22;8303;53.446;9.988;2022-12-24T12:58:36;9.10;1.00
16388;DHT22;8303;53.446;9.988;2022-12-24T13:01:10;9.20;1.00
16388;DHT22;8303;53.446;9.988;2022-12-24T13:04:11;9.20;1.00
16388;DHT22;8303;53.446;9.988;2022-12-24T13:07:03;9.40;1.00
16388;DHT22;8303;53.446;9.988;2022-12-24T13:12:39;9.40;1.00
16388;DHT22;8303;53.446;9.988;2022-12-24T13:15:33;9.30;1.00
16388;DHT22;8303;53.446;9.988;2022-12-24T13:18:20;9.10;1.00
16388;DHT22;8303;53.446;9.988;2022-12-24T13:20:51;9.00;1.00
16388;DHT22;8303;53.446;9.988;2022-12-24T13:23:20;8.90;1.00
16388;DHT22;8303;53.446;9.988;2022-12-24T13:25:51;8.90;1.00
16388;DHT22;8303;53.446;9.988;2022-12-24T13:28:34;8.80;1.00
16388;DHT22;8303;53.446;9.988;2022-12-24T13:31:26;8.80;1.00
16388;DHT22;8303;53.446;9.988;2022-12-24T13:34:01;8.80;1.00
16388;DHT22;8303;53.446;9.988;2022-12-24T13:37:01;8.70;1.00
16388;DHT22;8303;53.446;9.988;2022-12-24T13:40:06;8.80;1.00
16388;DHT22;8303;53.446;9.988;2022-12-24T13:42:48;8.80;1.00
16388;DHT22;8303;53.446;9.988;2022-12-24T13:45:41;8.90;1.00
16388;DHT22;8303;53.446;9.988;2022-12-24T13:48:17;9.00;1.00
16388;DHT22;8303;53.446;9.988;2022-12-24T13:50:48;9.00;1.00
16388;DHT22;8303;53.446;9.988;2022-12-24T13:53:21;9.00;1.00
16388;DHT22;8303;53.446;9.988;2022-12-24T13:55:50;9.00;1.00
16388;DHT22;8303;53.446;9.988;2022-12-24T13:58:20;9.10;1.00
16388;DHT22;8303;53.446;9.988;2022-12-24T14:00:53;9.10;1.00
16388;DHT22;8303;53.446;9.988;2022-12-24T14:03:27;9.10;1.00
16388;DHT22;8303;53.446;9.988;2022-12-24T14:05:58;9.20;1.00
16388;DHT22;8303;53.446;9.988;2022-12-24T14:08:31;9.20;1.00
16388;DHT22;8303;53.446;9.988;2022-12-24T14:11:05;9.20;1.00
16388;DHT22;8303;53.446;9.988;2022-12-24T14:16:47;9.20;1.00
16388;DHT22;8303;53.446;9.988;2022-12-24T14:19:17;9.30;1.00
16388;DHT22;8303;53.446;9.988;2022-12-24T14:22:00;9.40;1.00
16388;DHT22;8303;53.446;9.988;2022-12-24T14:24:32;9.40;1.00
16388;DHT22;8303;53.446;9.988;2022-12-24T14:27:06;9.40;1.00
16388;DHT22;8303;53.446;9.988;2022-12-24T14:29:42;9.30;1.00
16388;DHT22;8303;53.446;9.988;2022-12-24T14:32:14;9.30;1.00
16388;DHT22;8303;53.446;9.988;2022-12-24T14:34:41;9.20;1.00
16388;DHT22;8303;53.446;9.988;2022-12-24T14:37:09;9.10;1.00
16388;DHT22;8303;53.446;9.988;2022-12-24T14:39:41;9.10;1.00
16388;DHT22;8303;53.446;9.988;2022-12-24T14:42:21;8.90;1.00
16388;DHT22;8303;53.446;9.988;2022-12-24T14:45:01;9.00;1.00
16388;DHT22;8303;53.446;9.988;2022-12-24T14:47:35;8.90;1.00
16388;DHT22;8303;53.446;9.988;2022-12-24T14:50:36;8.90;1.00
16388;DHT22;8303;53.446;9.988;2022-12-24T14:53:16;8.80;1.00
16388;DHT22;8303;53.446;9.988;2022-12-24T14:55:45;8.70;1.00
16388;DHT22;8303;53.446;9.988;2022-12-24T14:58:18;8.60;1.00
16388;DHT22;8303;53.446;9.988;2022-12-24T15:00:48;8.60;1.00
16388;DHT22;8303;53.446;9.988;2022-12-24T15:03:17;8.50;1.00
16388;DHT22;8303;53.446;9.988;2022-12-24T15:05:44;8.40;22.70
16388;DHT22;8303;53.446;9.988;2022-12-24T15:08:17;8.30;99.90
16388;DHT22;8303;53.446;9.988;2022-12-24T15:10:49;8.30;99.90
16388;DHT22;8303;53.446;9.988;2022-12-24T15:13:23;8.30;99.90
16388;DHT22;8303;53.446;9.988;2022-12-24T15:15:55;8.30;99.90
16388;DHT22;8303;53.446;9.988;2022-12-24T15:18:25;8.30;99.90
16388;DHT22;8303;53.446;9.988;2022-12-24T15:20:55;8.30;99.90
16388;DHT22;8303;53.446;9.988;2022-12-24T15:23:26;8.30;99.90
16388;DHT22;8303;53.446;9.988;2022-12-24T15:26:06;8.40;99.90
16388;DHT22;8303;53.446;9.988;2022-12-24T15:28:35;8.40;99.90
16388;DHT22;8303;53.446;9.988;2022-12-24T15:31:11;8.30;99.90
16388;DHT22;8303;53.446;9.988;2022-12-24T15:33:38;8.30;99.90
16388;DHT22;8303;53.446;9.988;2022-12-24T15:36:07;8.40;1.00
16388;DHT22;8303;53.446;9.988;2022-12-24T15:38:36;8.40;99.90
16388;DHT22;8303;53.446;9.988;2022-12-24T15:41:07;8.50;1.00
16388;DHT22;8303;53.446;9.988;2022-12-24T15:43:38;8.50;99.90
16388;DHT22;8303;53.446;9.988;2022-12-24T15:46:07;8.60;1.00
16388;DHT22;8303;53.446;9.988;2022-12-24T15:48:34;8.60;1.00
16388;DHT22;8303;53.446;9.988;2022-12-24T15:51:04;8.60;1.00
16388;DHT22;8303;53.446;9.988;2022-12-24T15:53:34;8.60;99.90
16388;DHT22;8303;53.446;9.988;2022-12-24T15:56:06;8.70;99.90
16388;DHT22;8303;53.446;9.988;2022-12-24T15:58:36;8.70;1.00
16388;DHT22;8303;53.446;9.988;2022-12-24T16:03:56;8.80;1.00
16388;DHT22;8303;53.446;9.988;2022-12-24T16:06:24;8.80;99.90
16388;DHT22;8303;53.446;9.988;2022-12-24T16:08:52;8.70;99.90
16388;DHT22;8303;53.446;9.988;2022-12-24T16:11:22;8.70;99.90
16388;DHT22;8303;53.446;9.988;2022-12-24T16:14:06;8.70;1.00
16388;DHT22;8303;53.446;9.988;2022-12-24T16:16:38;8.70;1.00
16388;DHT22;8303;53.446;9.988;2022-12-24T16:19:15;8.70;1.00
16388;DHT22;8303;53.446;9.988;2022-12-24T16:21:42;8.70;1.00
16388;DHT22;8303;53.446;9.988;2022-12-24T16:24:14;8.70;1.00
16388;DHT22;8303;53.446;9.988;2022-12-24T16:26:42;8.70;1.00
16388;DHT22;8303;53.446;9.988;2022-12-24T16:29:09;8.70;1.00
16388;DHT22;8303;53.446;9.988;2022-12-24T16:31:42;8.70;1.00
16388;DHT22;8303;53.446;9.988;2022-12-24T16:34:13;8.70;1.00
16388;DHT22;8303;53.446;9.988;2022-12-24T16:36:41;8.70;1.00
16388;DHT22;8303;53.446;9.988;2022-12-24T16:39:10;8.70;1.00
16388;DHT22;8303;53.446;9.988;2022-12-24T16:41:50;8.70;1.00
16388;DHT22;8303;53.446;9.988;2022-12-24T16:44:34;8.70;1.00
16388;DHT22;8303;53.446;9.988;2022-12-24T16:47:02;8.70;1.00
16388;DHT22;8303;53.446;9.988;2022-12-24T16:49:31;8.70;1.00
16388;DHT22;8303;53.446;9.988;2022-12-24T16:51:58;8.70;1.00
16388;DHT22;8303;53.446;9.988;2022-12-24T16:54:24;8.70;1.00
16388;DHT22;8303;53.446;9.988;2022-12-24T16:56:51;8.70;1.00
16388;DHT22;8303;53.446;9.988;2022-12-24T16:59:20;8.70;1.00
16388;DHT22;8303;53.446;9.988;2022-12-24T17:01:47;8.70;1.00
16388;DHT22;8303;53.446;9.988;2022-12-24T17:04:15;8.80;1.00
16388;DHT22;8303;53.446;9.988;2022-12-24T17:06:44;8.80;1.00
16388;DHT22;8303;53.446;9.988;2022-12-24T17:09:11;8.70;1.00
16388;DHT22;8303;53.446;9.988;2022-12-24T17:11:38;8.70;99.90
16388;DHT22;8303;53.446;9.988;2022-12-24T17:14:05;8.70;99.90
16388;DHT22;8303;53.446;9.988;2022-12-24T17:16:32;8.70;1.00
16388;DHT22;8303;53.446;9.988;2022-12-24T17:19:01;8.70;1.00
16388;DHT22;8303;53.446;9.988;2022-12-24T17:21:28;8.80;1.00
16388;DHT22;8303;53.446;9.988;2022-12-24T17:23:56;8.80;99.90
16388;DHT22;8303;53.446;9.988;2022-12-24T17:26:23;8.70;99.90
16388;DHT22;8303;53.446;9.988;2022-12-24T17:28:52;8.80;99.90
16388;DHT22;8303;53.446;9.988;2022-12-24T17:31:19;8.80;99.90
16388;DHT22;8303;53.446;9.988;2022-12-24T17:33:47;8.80;99.90
16388;DHT22;8303;53.446;9.988;2022-12-24T17:36:14;8.80;99.90
16388;DHT22;8303;53.446;9.988;2022-12-24T17:38:41;8.70;99.90
16388;DHT22;8303;53.446;9.988;2022-12-24T17:41:11;8.70;99.90
16388;DHT22;8303;53.446;9.988;2022-12-24T17:43:38;8.70;99.90
16388;DHT22;8303;53.446;9.988;2022-12-24T17:46:06;8.70;99.90
16388;DHT22;8303;53.446;9.988;2022-12-24T17:48:33;8.80;99.90
16388;DHT22;8303;53.446;9.988;2022-12-24T17:51:03;8.70;99.90
16388;DHT22;8303;53.446;9.988;2022-12-24T17:53:31;8.70;99.90
16388;DHT22;8303;53.446;9.988;2022-12-24T17:55:58;8.70;99.90
16388;DHT22;8303;53.446;9.988;2022-12-24T17:58:26;8.70;99.90
16388;DHT22;8303;53.446;9.988;2022-12-24T18:00:54;8.80;99.90
16388;DHT22;8303;53.446;9.988;2022-12-24T18:03:23;8.90;99.90
16388;DHT22;8303;53.446;9.988;2022-12-24T18:05:51;8.80;99.90
16388;DHT22;8303;53.446;9.988;2022-12-24T18:08:18;8.80;99.90
16388;DHT22;8303;53.446;9.988;2022-12-24T18:10:46;8.70;99.90
16388;DHT22;8303;53.446;9.988;2022-12-24T18:13:13;8.60;99.90
16388;DHT22;8303;53.446;9.988;2022-12-24T18:15:41;8.60;99.90
16388;DHT22;8303;53.446;9.988;2022-12-24T18:18:09;8.50;99.90
16388;DHT22;8303;53.446;9.988;2022-12-24T18:20:36;8.50;99.90
16388;DHT22;8303;53.446;9.988;2022-12-24T18:23:02;8.50;99.90
16388;DHT22;8303;53.446;9.988;2022-12-24T18:25:29;8.40;99.90
16388;DHT22;8303;53.446;9.988;2022-12-24T18:27:56;8.30;99.90
16388;DHT22;8303;53.446;9.988;2022-12-24T18:30:23;8.30;99.90
16388;DHT22;8303;53.446;9.988;2022-12-24T18:32:52;8.20;99.90
16388;DHT22;8303;53.446;9.988;2022-12-24T18:35:19;8.20;99.90
16388;DHT22;8303;53.446;9.988;2022-12-24T18:37:47;8.20;99.90
16388;DHT22;8303;53.446;9.988;2022-12-24T18:40:14;8.10;99.90
16388;DHT22;8303;53.446;9.988;2022-12-24T18:42:42;8.10;99.90
16388;DHT22;8303;53.446;9.988;2022-12-24T18:45:10;8.00;99.90
16388;DHT22;8303;53.446;9.988;2022-12-24T18:47:37;8.00;99.90
16388;DHT22;8303;53.446;9.988;2022-12-24T18:50:07;8.00;99.90
16388;DHT22;8303;53.446;9.988;2022-12-24T18:52:34;7.90;99.90
16388;DHT22;8303;53.446;9.988;2022-12-24T18:55:00;7.90;99.90
16388;DHT22;8303;53.446;9.988;2022-12-24T18:57:27;7.80;99.90
16388;DHT22;8303;53.446;9.988;2022-12-24T18:59:55;7.80;99.90
16388;DHT22;8303;53.446;9.988;2022-12-24T19:02:22;8.10;1.00
16388;DHT22;8303;53.446;9.988;2022-12-24T19:04:49;8.10;99.90
16388;DHT22;8303;53.446;9.988;2022-12-24T19:07:17;8.00;99.90
16388;DHT22;8303;53.446;9.988;2022-12-24T19:09:44;8.20;99.90
16388;DHT22;8303;53.446;9.988;2022-12-24T19:12:13;8.10;99.90
16388;DHT22;8303;53.446;9.988;2022-12-24T19:14:41;8.00;99.90
16388;DHT22;8303;53.446;9.988;2022-12-24T19:17:08;7.80;99.90
16388;DHT22;8303;53.446;9.988;2022-12-24T19:19:35;7.80;99.90
16388;DHT22;8303;53.446;9.988;2022-12-24T19:22:02;7.60;99.90
16388;DHT22;8303;53.446;9.988;2022-12-24T19:24:30;7.60;99.90
16388;DHT22;8303;53.446;9.988;2022-12-24T19:26:57;7.50;99.90
16388;DHT22;8303;53.446;9.988;2022-12-24T19:29:24;7.60;99.90
16388;DHT22;8303;53.446;9.988;2022-12-24T19:31:51;7.60;99.90
16388;DHT22;8303;53.446;9.988;2022-12-24T19:34:18;7.60;99.90
16388;DHT22;8303;53.446;9.988;2022-12-24T19:36:44;7.60;99.90
16388;DHT22;8303;53.446;9.988;2022-12-24T19:39:13;7.60;99.90
16388;DHT22;8303;53.446;9.988;2022-12-24T19:41:41;7.60;99.90
16388;DHT22;8303;53.446;9.988;2022-12-24T19:44:08;7.60;99.90
16388;DHT22;8303;53.446;9.988;2022-12-24T19:46:36;7.60;99.90
16388;DHT22;8303;53.446;9.988;2022-12-24T19:49:04;7.90;1.00
16388;DHT22;8303;53.446;9.988;2022-12-24T19:51:32;8.20;1.00
16388;DHT22;8303;53.446;9.988;2022-12-24T19:53:59;8.30;99.90
16388;DHT22;8303;53.446;9.988;2022-12-24T19:56:27;8.20;99.90
16388;DHT22;8303;53.446;9.988;2022-12-24T19:58:57;8.10;99.90
16388;DHT22;8303;53.446;9.988;2022-12-24T20:01:26;7.90;96.10
16388;DHT22;8303;53.446;9.988;2022-12-24T20:03:54;7.80;93.10
16388;DHT22;8303;53.446;9.988;2022-12-24T20:06:24;7.70;99.90
16388;DHT22;8303;53.446;9.988;2022-12-24T20:08:51;7.60;99.90
16388;DHT22;8303;53.446;9.988;2022-12-24T20:11:19;7.50;96.70
16388;DHT22;8303;53.446;9.988;2022-12-24T20:13:47;7.30;99.90
16388;DHT22;8303;53.446;9.988;2022-12-24T20:16:17;7.20;99.90
16388;DHT22;8303;53.446;9.988;2022-12-24T20:18:49;7.10;99.90
16388;DHT22;8303;53.446;9.988;2022-12-24T20:21:17;7.00;99.90
16388;DHT22;8303;53.446;9.988;2022-12-24T20:23:44;6.90;99.90
16388;DHT22;8303;53.446;9.988;2022-12-24T20:26:12;6.80;99.90
16388;DHT22;8303;53.446;9.988;2022-12-24T20:28:40;6.80;99.90
16388;DHT22;8303;53.446;9.988;2022-12-24T20:31:11;6.70;99.90
16388;DHT22;8303;53.446;9.988;2022-12-24T20:33:40;6.60;99.90
16388;DHT22;8303;53.446;9.988;2022-12-24T20:36:08;6.60;1.00
16388;DHT22;8303;53.446;9.988;2022-12-24T20:38:36;6.70;1.00
16388;DHT22;8303;53.446;9.988;2022-12-24T20:41:04;6.80;1.00
16388;DHT22;8303;53.446;9.988;2022-12-24T20:43:31;6.80;1.00
16388;DHT22;8303;53.446;9.988;2022-12-24T20:45:58;6.90;1.00
16388;DHT22;8303;53.446;9.988;2022-12-24T20:48:25;6.90;1.00
16388;DHT22;8303;53.446;9.988;2022-12-24T20:50:53;6.80;1.00
16388;DHT22;8303;53.446;9.988;2022-12-24T20:53:20;6.90;1.00
16388;DHT22;8303;53.446;9.988;2022-12-24T20:55:49;6.90;1.00
16388;DHT22;8303;53.446;9.988;2022-12-24T20:58:16;6.90;1.00
16388;DHT22;8303;53.446;9.988;2022-12-24T21:00:46;7.00;1.00
16388;DHT22;8303;53.446;9.988;2022-12-24T21:03:13;7.00;1.00
16388;DHT22;8303;53.446;9.988;2022-12-24T21:05:42;7.00;1.00
16388;DHT22;8303;53.446;9.988;2022-12-24T21:08:11;7.00;1.00
16388;DHT22;8303;53.446;9.988;2022-12-24T21:10:39;6.90;1.00
16388;DHT22;8303;53.446;9.988;2022-12-24T21:13:06;6.90;1.00
16388;DHT22;8303;53.446;9.988;2022-12-24T21:15:34;6.90;1.00
16388;DHT22;8303;53.446;9.988;2022-12-24T21:18:01;6.90;1.00
16388;DHT22;8303;53.446;9.988;2022-12-24T21:20:35;7.00;1.00
16388;DHT22;8303;53.446;9.988;2022-12-24T21:23:02;7.00;1.00
16388;DHT22;8303;53.446;9.988;2022-12-24T21:25:40;7.00;1.00
16388;DHT22;8303;53.446;9.988;2022-12-24T21:28:07;7.00;1.00
